createdAt,value
2023-06-09T00:01:47.980Z,100508.13
2023-06-09T00:04:14.832Z,100520.50
2023-06-09T00:06:41.425Z,100516.13
2023-06-09T00:09:08.364Z,100514.81
2023-06-09T00:11:34.964Z,100512.38
2023-06-09T00:14:01.664Z,100515.44
2023-06-09T00:16:29.810Z,100516.03
2023-06-09T00:18:58.852Z,100517.66
2023-06-09T00:21:26.680Z,100522.66
2023-06-09T00:23:57.278Z,100521.03
2023-06-09T00:26:24.029Z,100517.44
2023-06-09T00:28:50.907Z,100520.50
2023-06-09T00:31:17.484Z,100520.50
2023-06-09T00:33:44.084Z,100524.34
2023-06-09T00:36:10.620Z,100518.88
2023-06-09T00:38:37.372Z,100511.78
2023-06-09T00:41:04.000Z,100517.25
2023-06-09T00:43:30.690Z,100512.56
2023-06-09T00:45:57.536Z,100516.44
2023-06-09T00:48:24.102Z,100515.63
2023-06-09T00:50:50.678Z,100524.97
2023-06-09T00:53:17.932Z,100515.63
2023-06-09T00:55:44.724Z,100524.16
2023-06-09T00:58:11.614Z,100516.25
2023-06-09T01:00:40.313Z,100516.25
2023-06-09T01:03:07.366Z,100520.09
2023-06-09T01:05:35.366Z,100502.00
2023-06-09T01:08:17.026Z,100507.50
2023-06-09T01:10:47.235Z,100507.78
2023-06-09T01:13:27.993Z,100509.72
2023-06-09T01:16:01.014Z,100512.28
2023-06-09T01:18:29.067Z,100506.25
2023-06-09T01:21:04.077Z,100507.38
2023-06-09T01:23:39.065Z,100517.00
2023-06-09T01:26:05.745Z,100509.06
2023-06-09T01:28:33.125Z,100518.72
2023-06-09T01:30:59.940Z,100515.47
2023-06-09T01:33:26.971Z,100516.09
2023-06-09T01:35:54.356Z,100517.19
2023-06-09T01:38:21.689Z,100514.78
2023-06-09T01:40:48.371Z,100516.19
2023-06-09T01:43:15.085Z,100510.69
2023-06-09T01:45:41.728Z,100502.78
2023-06-09T01:48:20.643Z,100499.19
2023-06-09T01:51:01.090Z,100497.56
2023-06-09T01:53:29.968Z,100495.97
2023-06-09T01:55:59.858Z,100493.22
2023-06-09T01:58:41.642Z,100494.03
2023-06-09T02:01:08.901Z,100490.75
2023-06-09T02:03:38.879Z,100489.94
2023-06-09T02:06:06.319Z,100488.31
2023-06-09T02:08:33.461Z,100491.06
2023-06-09T02:11:00.140Z,100493.81
2023-06-09T02:13:26.717Z,100489.44
2023-06-09T02:15:53.257Z,100492.47
2023-06-09T02:18:22.873Z,100496.06
2023-06-09T02:20:49.872Z,100490.03
2023-06-09T02:23:16.936Z,100493.91
2023-06-09T02:25:43.578Z,100498.28
2023-06-09T02:28:10.301Z,100491.16
2023-06-09T02:30:36.997Z,100496.63
2023-06-09T02:33:03.823Z,100495.84
2023-06-09T02:35:31.138Z,100493.41
2023-06-09T02:37:59.110Z,100498.88
2023-06-09T02:40:29.092Z,100499.19
2023-06-09T02:42:55.704Z,100501.09
2023-06-09T02:45:22.298Z,100497.56
2023-06-09T02:47:49.118Z,100503.34
2023-06-09T02:50:15.821Z,100507.19
2023-06-09T02:52:43.412Z,100508.31
2023-06-09T02:55:10.088Z,100500.69
2023-06-09T02:57:36.700Z,100510.03
2023-06-09T03:00:05.565Z,100506.78
2023-06-09T03:02:34.011Z,100513.38
2023-06-09T03:05:00.638Z,100507.91
2023-06-09T03:07:27.241Z,100512.84
2023-06-09T03:09:53.794Z,100519.16
2023-06-09T03:12:20.517Z,100524.94
2023-06-09T03:14:47.246Z,100528.81
2023-06-09T03:17:14.532Z,100527.66
2023-06-09T03:19:41.454Z,100529.91
2023-06-09T03:22:08.073Z,100534.59
2023-06-09T03:24:35.140Z,100532.13
2023-06-09T03:27:01.885Z,100535.19
2023-06-09T03:29:30.209Z,100535.19
2023-06-09T03:31:56.773Z,100539.03
2023-06-09T03:34:24.154Z,100532.25
2023-06-09T03:36:50.693Z,100540.47
2023-06-09T03:39:18.230Z,100539.63
2023-06-09T03:41:44.822Z,100540.75
2023-06-09T03:44:11.392Z,100541.56
2023-06-09T03:46:38.062Z,100542.69
2023-06-09T03:49:04.595Z,100543.78
2023-06-09T03:51:31.090Z,100546.53
2023-06-09T03:53:57.694Z,100535.88
2023-06-09T03:56:24.247Z,100533.94
2023-06-09T03:58:50.786Z,100538.59
2023-06-09T04:01:19.040Z,100543.28
2023-06-09T04:06:12.243Z,100548.25
2023-06-09T04:08:38.760Z,100547.75
2023-06-09T04:11:05.284Z,100546.59
2023-06-09T04:13:31.834Z,100545.00
2023-06-09T04:15:58.491Z,100540.63
2023-06-09T04:18:25.002Z,100548.84
2023-06-09T04:20:51.928Z,100547.75
2023-06-09T04:23:18.478Z,100550.47
2023-06-09T04:25:45.060Z,100545.81
2023-06-09T04:28:11.700Z,100557.56
2023-06-09T04:30:39.288Z,100547.75
2023-06-09T04:33:06.334Z,100550.97
2023-06-09T04:35:32.944Z,100547.44
2023-06-09T04:38:03.838Z,100552.63
2023-06-09T04:40:31.217Z,100547.13
2023-06-09T04:42:58.773Z,100543.56
2023-06-09T04:45:34.951Z,100546.03
2023-06-09T04:48:04.451Z,100537.81
2023-06-09T04:50:33.933Z,100542.16
2023-06-09T04:53:05.298Z,100539.41
2023-06-09T04:55:32.189Z,100541.03
2023-06-09T04:57:58.739Z,100544.63
2023-06-09T05:00:27.952Z,100549.78
2023-06-09T05:02:58.622Z,100551.44
2023-06-09T05:05:25.840Z,100545.13
2023-06-09T05:07:52.617Z,100543.22
2023-06-09T05:10:19.165Z,100539.63
2023-06-09T05:12:45.733Z,100545.13
2023-06-09T05:15:12.463Z,100536.09
2023-06-09T05:17:39.223Z,100547.84
2023-06-09T05:20:09.466Z,100538.00
2023-06-09T05:22:37.012Z,100553.03
2023-06-09T05:25:07.232Z,100546.75
2023-06-09T05:27:33.793Z,100545.34
2023-06-09T05:30:00.480Z,100551.31
2023-06-09T05:32:27.066Z,100549.91
2023-06-09T05:34:54.267Z,100553.97
2023-06-09T05:37:20.862Z,100551.47
2023-06-09T05:39:47.396Z,100564.25
2023-06-09T05:42:14.399Z,100567.53
2023-06-09T05:44:40.920Z,100568.56
2023-06-09T05:47:07.908Z,100567.94
2023-06-09T05:49:35.758Z,100563.00
2023-06-09T05:52:03.056Z,100576.09
2023-06-09T05:54:29.550Z,100576.31
2023-06-09T05:56:56.427Z,100572.47
2023-06-09T05:59:24.353Z,100575.69
2023-06-09T06:01:51.536Z,100571.53
2023-06-09T06:04:18.408Z,100575.94
2023-06-09T06:06:45.146Z,100572.06
2023-06-09T06:09:11.887Z,100583.06
2023-06-09T06:11:38.535Z,100588.53
2023-06-09T06:14:05.033Z,100588.53
2023-06-09T06:16:31.615Z,100592.91
2023-06-09T06:18:58.290Z,100591.78
2023-06-09T06:21:24.822Z,100589.56
2023-06-09T06:23:51.333Z,100591.19
2023-06-09T06:26:17.907Z,100597.19
2023-06-09T06:28:44.590Z,100590.56
2023-06-09T06:31:11.210Z,100597.69
2023-06-09T06:33:38.140Z,100593.81
2023-06-09T06:36:04.788Z,100593.81
2023-06-09T06:38:31.377Z,100598.75
2023-06-09T06:40:57.893Z,100594.91
2023-06-09T06:43:24.394Z,100598.16
2023-06-09T06:45:50.923Z,100600.28
2023-06-09T06:48:17.449Z,100607.94
2023-06-09T06:50:44.271Z,100609.25
2023-06-09T06:53:10.912Z,100601.50
2023-06-09T06:55:38.399Z,100601.22
2023-06-09T06:58:05.151Z,100602.25
2023-06-09T07:00:31.800Z,100605.50
2023-06-09T07:02:58.439Z,100598.28
2023-06-09T07:05:25.051Z,100607.03
2023-06-09T07:07:51.565Z,100604.47
2023-06-09T07:10:18.149Z,100611.81
2023-06-09T07:12:44.740Z,100611.19
2023-06-09T07:15:11.630Z,100600.66
2023-06-09T07:17:38.364Z,100607.66
2023-06-09T07:20:05.726Z,100599.84
2023-06-09T07:22:35.411Z,100598.31
2023-06-09T07:25:02.258Z,100603.44
2023-06-09T07:27:28.809Z,100601.06
2023-06-09T07:29:55.324Z,100608.59
2023-06-09T07:32:22.159Z,100599.59
2023-06-09T07:34:48.827Z,100601.63
2023-06-09T07:37:15.620Z,100607.53
2023-06-09T07:39:42.337Z,100601.94
2023-06-09T07:42:08.900Z,100607.81
2023-06-09T07:44:35.398Z,100608.50
2023-06-09T07:47:02.949Z,100613.91
2023-06-09T07:49:29.494Z,100612.38
2023-06-09T07:51:57.074Z,100604.00
2023-06-09T07:54:24.351Z,100613.13
2023-06-09T07:56:51.602Z,100612.38
2023-06-09T07:59:18.515Z,100605.31
2023-06-09T08:01:45.194Z,100602.63
2023-06-09T08:04:12.069Z,100604.00
2023-06-09T08:06:39.076Z,100600.50
2023-06-09T08:09:06.092Z,100603.50
2023-06-09T08:11:32.786Z,100603.22
2023-06-09T08:13:59.460Z,100594.19
2023-06-09T08:16:26.077Z,100599.44
2023-06-09T08:18:52.739Z,100594.28
2023-06-09T08:21:19.347Z,100595.13
2023-06-09T08:23:46.392Z,100603.78
2023-06-09T08:26:13.189Z,100597.78
2023-06-09T08:28:39.898Z,100596.53
2023-06-09T08:31:07.228Z,100598.31
2023-06-09T08:33:34.673Z,100593.13
2023-06-09T08:36:04.167Z,100597.38
2023-06-09T08:38:34.802Z,100597.72
2023-06-09T08:41:09.043Z,100597.25
2023-06-09T08:43:36.022Z,100607.81
2023-06-09T08:46:04.720Z,100607.84
2023-06-09T08:48:32.124Z,100603.78
2023-06-09T08:50:59.148Z,100604.94
2023-06-09T08:53:26.352Z,100612.41
2023-06-09T08:55:59.711Z,100606.41
2023-06-09T08:58:27.305Z,100608.00
2023-06-09T09:00:53.949Z,100607.19
2023-06-09T09:03:21.735Z,100604.47
2023-06-09T09:05:48.317Z,100598.44
2023-06-09T09:08:17.905Z,100597.63
2023-06-09T09:10:46.824Z,100600.72
2023-06-09T09:13:13.720Z,100588.00
2023-06-09T09:15:51.117Z,100595.13
2023-06-09T09:18:18.512Z,100593.81
2023-06-09T09:20:45.632Z,100590.22
2023-06-09T09:23:12.395Z,100596.06
2023-06-09T09:25:39.406Z,100591.66
2023-06-09T09:28:09.773Z,100592.44
2023-06-09T09:30:50.168Z,100587.69
2023-06-09T09:33:19.831Z,100588.91
2023-06-09T09:35:47.905Z,100588.19
2023-06-09T09:38:15.824Z,100588.31
2023-06-09T09:40:44.031Z,100582.88
2023-06-09T09:43:11.570Z,100587.22
2023-06-09T09:45:40.428Z,100581.75
2023-06-09T09:48:11.249Z,100586.06
2023-06-09T09:50:38.255Z,100585.03
2023-06-09T09:53:05.509Z,100580.69
2023-06-09T09:55:32.882Z,100582.00
2023-06-09T09:58:01.267Z,100577.81
2023-06-09T10:00:28.930Z,100578.31
2023-06-09T10:03:00.547Z,100573.28
2023-06-09T10:05:30.314Z,100577.69
2023-06-09T10:07:57.180Z,100574.59
2023-06-09T10:10:24.121Z,100576.59
2023-06-09T10:12:52.500Z,100571.84
2023-06-09T10:15:20.464Z,100584.91
2023-06-09T10:17:47.814Z,100574.50
2023-06-09T10:20:14.483Z,100570.09
2023-06-09T10:22:41.658Z,100573.59
2023-06-09T10:25:09.615Z,100573.44
2023-06-09T10:27:36.731Z,100577.72
2023-06-09T10:30:04.728Z,100572.84
2023-06-09T10:32:33.126Z,100565.63
2023-06-09T10:35:00.460Z,100569.09
2023-06-09T10:37:30.984Z,100565.34
2023-06-09T10:40:02.386Z,100567.88
2023-06-09T10:42:39.853Z,100556.03
2023-06-09T10:45:09.433Z,100554.16
2023-06-09T10:47:42.918Z,100565.50
2023-06-09T10:50:22.241Z,100550.63
2023-06-09T10:52:58.800Z,100559.63
2023-06-09T10:55:28.536Z,100561.91
2023-06-09T10:57:56.266Z,100555.00
2023-06-09T11:00:23.345Z,100556.91
2023-06-09T11:03:09.848Z,100550.81
2023-06-09T11:05:43.178Z,100551.78
2023-06-09T11:08:09.733Z,100546.06
2023-06-09T11:10:39.553Z,100552.63
2023-06-09T11:13:44.760Z,100551.25
2023-06-09T11:16:11.440Z,100554.63
2023-06-09T11:18:40.110Z,100545.75
2023-06-09T11:21:14.504Z,100550.84
2023-06-09T11:24:02.148Z,100538.06
2023-06-09T11:26:29.414Z,100538.06
2023-06-09T11:28:55.996Z,100538.84
2023-06-09T11:31:22.693Z,100535.13
2023-06-09T11:33:50.429Z,100533.44
2023-06-09T11:36:28.542Z,100530.50
2023-06-09T11:38:59.716Z,100531.56
2023-06-09T11:41:26.924Z,100524.63
2023-06-09T11:43:54.478Z,100521.66
2023-06-09T11:46:21.418Z,100525.88
2023-06-09T11:48:57.463Z,100530.41
2023-06-09T11:51:24.066Z,100534.06
2023-06-09T11:53:51.295Z,100519.75
2023-06-09T11:56:17.891Z,100524.09
2023-06-09T11:58:44.426Z,100534.00
2023-06-09T12:01:11.226Z,100526.75
2023-06-09T12:03:39.456Z,100534.63
2023-06-09T12:06:06.254Z,100528.09
2023-06-09T12:08:33.724Z,100535.19
2023-06-09T12:11:03.273Z,100529.47
2023-06-09T12:13:30.223Z,100529.34
2023-06-09T12:15:56.870Z,100535.22
2023-06-09T12:18:23.471Z,100526.00
2023-06-09T12:20:51.641Z,100528.34
2023-06-09T12:23:18.800Z,100526.75
2023-06-09T12:25:48.185Z,100529.97
2023-06-09T12:28:16.605Z,100528.03
2023-06-09T12:30:46.553Z,100520.50
2023-06-09T12:33:14.648Z,100532.06
2023-06-09T12:35:42.037Z,100527.72
2023-06-09T12:38:12.129Z,100519.00
2023-06-09T12:40:45.643Z,100519.06
2023-06-09T12:43:12.552Z,100523.16
2023-06-09T12:45:41.417Z,100518.06
2023-06-09T12:48:08.345Z,100520.53
2023-06-09T12:50:35.695Z,100525.00
2023-06-09T12:53:02.532Z,100521.50
2023-06-09T12:55:29.212Z,100526.19
2023-06-09T12:57:55.816Z,100528.09
2023-06-09T13:00:23.449Z,100527.22
2023-06-09T13:02:51.064Z,100514.78
2023-06-09T13:05:18.097Z,100520.69
2023-06-09T13:07:45.043Z,100523.31
2023-06-09T13:10:11.843Z,100520.44
2023-06-09T13:12:38.539Z,100523.13
2023-06-09T13:15:05.298Z,100521.91
2023-06-09T13:17:31.896Z,100522.66
2023-06-09T13:19:58.485Z,100522.19
2023-06-09T13:22:25.079Z,100517.34
2023-06-09T13:24:51.671Z,100516.09
2023-06-09T13:27:18.241Z,100520.88
2023-06-09T13:29:44.780Z,100521.63
2023-06-09T13:32:11.316Z,100516.78
2023-06-09T13:34:38.937Z,100519.88
2023-06-09T13:37:05.772Z,100520.13
2023-06-09T13:39:32.336Z,100516.69
2023-06-09T13:41:58.918Z,100520.75
2023-06-09T13:44:25.640Z,100520.56
2023-06-09T13:46:52.208Z,100515.94
2023-06-09T13:49:18.940Z,100510.13
2023-06-09T13:51:45.618Z,100514.38
2023-06-09T13:54:12.183Z,100513.50
2023-06-09T13:56:38.990Z,100514.66
2023-06-09T13:59:07.442Z,100511.06
2023-06-09T14:01:35.219Z,100498.31
2023-06-09T14:04:02.014Z,100502.72
2023-06-09T14:06:28.795Z,100496.00
2023-06-09T14:08:55.416Z,100498.41
2023-06-09T14:11:23.049Z,100508.00
2023-06-09T14:13:49.907Z,100496.97
2023-06-09T14:16:16.527Z,100501.78
2023-06-09T14:18:43.158Z,100495.09
2023-06-09T14:21:09.704Z,100493.19
2023-06-09T14:23:37.222Z,100486.91
2023-06-09T14:26:03.917Z,100489.78
2023-06-09T14:28:30.512Z,100479.16
2023-06-09T14:30:57.188Z,100476.50
2023-06-09T14:33:23.805Z,100474.69
2023-06-09T14:35:50.378Z,100469.69
2023-06-09T14:38:16.929Z,100470.25
2023-06-09T14:40:43.483Z,100470.00
2023-06-09T14:43:11.155Z,100463.41
2023-06-09T14:45:38.029Z,100461.19
2023-06-09T14:48:07.854Z,100457.38
2023-06-09T14:50:39.144Z,100468.63
2023-06-09T14:53:06.266Z,100452.75
2023-06-09T14:55:36.733Z,100457.59
2023-06-09T14:58:03.746Z,100451.69
2023-06-09T15:00:31.573Z,100448.97
2023-06-09T15:02:59.587Z,100450.66
2023-06-09T15:05:27.305Z,100445.88
2023-06-09T15:07:56.088Z,100441.06
2023-06-09T15:10:23.563Z,100437.13
2023-06-09T15:12:50.798Z,100445.94
2023-06-09T15:15:20.149Z,100441.97
2023-06-09T15:17:46.974Z,100432.41
2023-06-09T15:20:15.656Z,100434.81
2023-06-09T15:22:42.331Z,100434.81
2023-06-09T15:25:10.033Z,100430.03
2023-06-09T15:27:39.562Z,100426.81
2023-06-09T15:30:07.108Z,100426.81
2023-06-09T15:32:33.790Z,100426.41
2023-06-09T15:35:00.389Z,100424.34
2023-06-09T15:37:27.063Z,100422.75
2023-06-09T15:39:53.578Z,100419.97
2023-06-09T15:42:20.180Z,100421.13
2023-06-09T15:44:46.808Z,100415.56
2023-06-09T15:47:13.925Z,100415.19
2023-06-09T15:49:40.741Z,100406.81
2023-06-09T15:52:07.535Z,100404.03
2023-06-09T15:54:34.148Z,100408.81
2023-06-09T15:57:03.465Z,100407.59
2023-06-09T15:59:30.620Z,100407.59
2023-06-09T16:01:57.652Z,100402.84
2023-06-09T16:04:24.525Z,100408.81
2023-06-09T16:06:51.842Z,100400.44
2023-06-09T16:09:18.722Z,100403.22
2023-06-09T16:11:45.297Z,100396.03
2023-06-09T16:14:11.861Z,100404.41
2023-06-09T16:16:38.453Z,100391.63
2023-06-09T16:19:05.022Z,100395.97
2023-06-09T16:21:32.258Z,100394.75
2023-06-09T16:23:58.911Z,100402.69
2023-06-09T16:26:28.476Z,100399.06
2023-06-09T16:28:55.286Z,100399.41
2023-06-09T16:31:22.077Z,100399.38
2023-06-09T16:33:48.878Z,100398.53
2023-06-09T16:36:15.604Z,100404.09
2023-06-09T16:38:43.688Z,100400.06
2023-06-09T16:41:10.685Z,100398.81
2023-06-09T16:43:40.061Z,100394.78
2023-06-09T16:46:06.999Z,100399.09
2023-06-09T16:48:36.761Z,100399.03
2023-06-09T16:51:04.185Z,100392.22
2023-06-09T16:53:31.009Z,100394.97
2023-06-09T16:55:57.792Z,100390.94
2023-06-09T16:58:24.614Z,100393.28
2023-06-09T17:00:51.180Z,100403.56
2023-06-09T17:03:17.993Z,100399.13
2023-06-09T17:05:44.877Z,100399.06
2023-06-09T17:08:11.596Z,100411.31
2023-06-09T17:10:38.299Z,100397.31
2023-06-09T17:13:06.294Z,100399.25
2023-06-09T17:15:33.334Z,100398.34
2023-06-09T17:18:00.095Z,100400.72
2023-06-09T17:20:26.798Z,100391.84
2023-06-09T17:22:53.412Z,100397.34
2023-06-09T17:25:20.261Z,100404.44
2023-06-09T17:27:47.213Z,100398.00
2023-06-09T17:30:15.191Z,100399.09
2023-06-09T17:32:42.651Z,100408.56
2023-06-09T17:35:09.663Z,100407.72
2023-06-09T17:37:38.472Z,100401.63
2023-06-09T17:40:08.696Z,100411.44
2023-06-09T17:42:35.602Z,100410.94
2023-06-09T17:45:02.551Z,100406.00
2023-06-09T17:47:29.673Z,100409.09
2023-06-09T17:49:56.260Z,100408.91
2023-06-09T17:52:22.864Z,100406.47
2023-06-09T17:54:49.584Z,100411.84
2023-06-09T17:57:16.298Z,100414.50
2023-06-09T17:59:42.866Z,100405.97
2023-06-09T18:02:09.525Z,100409.78
2023-06-09T18:04:36.400Z,100408.78
2023-06-09T18:07:06.250Z,100416.16
2023-06-09T18:09:33.093Z,100411.59
2023-06-09T18:11:59.984Z,100412.97
2023-06-09T18:14:26.739Z,100419.16
2023-06-09T18:16:53.836Z,100425.72
2023-06-09T18:19:20.376Z,100419.50
2023-06-09T18:21:47.508Z,100423.28
2023-06-09T18:24:14.290Z,100419.88
2023-06-09T18:26:41.554Z,100417.25
2023-06-09T18:29:09.693Z,100422.97
2023-06-09T18:31:36.436Z,100421.53
2023-06-09T18:34:03.122Z,100422.84
2023-06-09T18:36:32.369Z,100425.41
2023-06-09T18:38:59.592Z,100428.72
2023-06-09T18:41:26.488Z,100424.47
2023-06-09T18:43:55.938Z,100428.22
2023-06-09T18:46:22.589Z,100436.72
2023-06-09T18:49:00.370Z,100428.84
2023-06-09T18:51:28.101Z,100428.19
2023-06-09T18:53:55.041Z,100431.09
2023-06-09T18:56:21.906Z,100434.00
2023-06-09T18:58:48.562Z,100426.16
2023-06-09T19:01:15.643Z,100431.03
2023-06-09T19:03:42.626Z,100433.09
2023-06-09T19:06:09.423Z,100428.00
2023-06-09T19:08:36.010Z,100430.09
2023-06-09T19:11:02.893Z,100437.72
2023-06-09T19:13:29.548Z,100428.72
2023-06-09T19:15:56.420Z,100427.97
2023-06-09T19:18:23.088Z,100434.44
2023-06-09T19:20:50.826Z,100434.91
2023-06-09T19:23:17.602Z,100424.28
2023-06-09T19:25:44.301Z,100431.88
2023-06-09T19:28:10.924Z,100432.78
2023-06-09T19:30:37.678Z,100440.34
2023-06-09T19:33:04.624Z,100444.00
2023-06-09T19:35:31.358Z,100443.28
2023-06-09T19:38:00.165Z,100455.56
2023-06-09T19:40:27.304Z,100451.25
2023-06-09T19:42:53.931Z,100445.69
2023-06-09T19:45:20.756Z,100455.13
2023-06-09T19:47:48.081Z,100461.41
2023-06-09T19:50:14.830Z,100459.06
2023-06-09T19:52:41.700Z,100458.63
2023-06-09T19:55:08.943Z,100462.59
2023-06-09T19:57:36.129Z,100461.03
2023-06-09T20:00:05.977Z,100465.41
2023-06-09T20:02:33.837Z,100477.66
2023-06-09T20:05:00.559Z,100477.22
2023-06-09T20:07:27.238Z,100473.69
2023-06-09T20:09:53.788Z,100483.97
2023-06-09T20:12:20.397Z,100477.66
2023-06-09T20:14:47.708Z,100485.91
2023-06-09T20:17:14.414Z,100491.44
2023-06-09T20:19:41.330Z,100486.28
2023-06-09T20:22:09.643Z,100491.00
2023-06-09T20:24:36.323Z,100490.53
2023-06-09T20:27:02.924Z,100494.41
2023-06-09T20:29:30.058Z,100497.50
2023-06-09T20:31:56.722Z,100500.25
2023-06-09T20:34:23.355Z,100494.72
2023-06-09T20:36:49.984Z,100499.41
2023-06-09T20:39:16.752Z,100502.19
2023-06-09T20:41:43.407Z,100506.53
2023-06-09T20:44:10.151Z,100516.41
2023-06-09T20:46:36.995Z,100509.72
2023-06-09T20:49:03.827Z,100518.28
2023-06-09T20:51:30.442Z,100516.31
2023-06-09T20:53:57.477Z,100528.41
2023-06-09T20:56:24.220Z,100521.25
2023-06-09T20:58:51.320Z,100528.69
2023-06-09T21:01:18.329Z,100532.19
2023-06-09T21:03:47.656Z,100527.72
2023-06-09T21:06:20.728Z,100539.84
2023-06-09T21:08:47.944Z,100540.59
2023-06-09T21:11:14.879Z,100545.22
2023-06-09T21:13:41.858Z,100541.63
2023-06-09T21:16:08.570Z,100543.50
2023-06-09T21:18:35.335Z,100543.41
2023-06-09T21:21:02.106Z,100557.59
2023-06-09T21:23:28.636Z,100547.31
2023-06-09T21:25:55.293Z,100549.69
2023-06-09T21:28:21.901Z,100559.81
2023-06-09T21:30:48.623Z,100559.91
2023-06-09T22:38:56.413Z,100597.69
2023-06-09T22:41:23.249Z,100598.00
2023-06-09T22:43:49.832Z,100596.38
2023-06-09T22:46:16.860Z,100597.81
2023-06-09T22:48:43.574Z,100604.72
2023-06-09T22:51:10.321Z,100606.94
2023-06-09T22:53:38.303Z,100598.22
2023-06-09T22:56:05.256Z,100605.94
2023-06-09T22:58:31.883Z,100610.94
2023-06-09T23:00:58.476Z,100608.78
2023-06-09T23:03:25.074Z,100609.41
2023-06-09T23:05:56.466Z,100604.53
2023-06-09T23:08:25.116Z,100606.75
2023-06-09T23:10:51.817Z,100602.97
2023-06-09T23:13:18.410Z,100597.78
2023-06-09T23:15:45.032Z,100615.69
2023-06-09T23:18:11.680Z,100603.69
2023-06-09T23:20:39.552Z,100608.66
2023-06-09T23:23:06.413Z,100594.75
2023-06-09T23:25:34.654Z,100606.00
2023-06-09T23:28:01.235Z,100598.41
2023-06-09T23:30:30.368Z,100598.72
2023-06-09T23:32:57.285Z,100600.44
2023-06-09T23:35:25.064Z,100598.00
2023-06-09T23:37:53.926Z,100600.22
2023-06-09T23:40:20.687Z,100592.28
2023-06-09T23:42:47.241Z,100595.34
2023-06-09T23:45:14.542Z,100593.72
2023-06-09T23:47:41.179Z,100593.50
2023-06-09T23:50:08.178Z,100595.44
2023-06-09T23:52:34.820Z,100594.91
2023-06-09T23:55:05.388Z,100594.44
2023-06-09T23:57:32.189Z,100597.78
2023-06-09T23:59:58.672Z,100599.22
